Terminal Aerodrome Forecast
Issued by NWS

Home | Current Version | Previous Version | Text Only | Print | Product List | Glossary On
Versions: 1 2 3 4 5 6 7 8 9 10 11 12 13 14 15 16
000
FTUS45 KFGZ 150500
TAFPRC
TAF
KPRC 150520Z 1506/1606 20006KT P6SM SKC
     FM151900 08008KT P6SM SCT070 PROB30 1520/1524 VRB15G30KT 5SM
      TSRA BKN060CB
     FM160200 20006KT P6SM FEW100=

USA.gov is the U.S. government's official web portal to all federal, state and local government web resources and services.